McCall, Louisiana
Current Conditions -  °F | °C
As of 10:15 PM on Sunday 21 Dec 2014 (Local Time) from KL38 Reporting Station
Haze Haze  
Wind Chill: 11°   Ceiling: 500
Heat Index: 11°   Visibility: 5mi
Dew Point: 11°   Wind: 0mph
Humidity: 100%   Direction: NA
Pressure: 29.95"   Gusts: NA
Location:  30.1206°N, 91.0306°W
Report Text: KL38 220415Z AUTO 00000KT 5SM BR OVC005 11/11 A2995 RMK AO2 T01130113
Loading
Personal Weather Stations






























Interactive Weather Map New forecast layout! Learn more

10-Day Weather Forecast

Advertisements
Track Severe Weather on mobile